15°C Temp
13°C Dewpoint
% Humidity
Temperature
19 KM/H
12 MPH
10 KTS
150°
South South
East

Wind Speed
Light Rain
Showers
Pressure 1005.92 (hPa) - 29.7 (in)
Visibility 6.2 (mi) - 10.0 (km)

Current Conditions
EFHK
Location 67(km)
Metar :EFHK 160350Z 15010KT 9999 -RA FEW012 SCT040 15/13 Q1006 TEMPO FEW040CB
Tue 16th July 06:50 am

Airport
  Metar Aviation API Data Provided by https://www.checkwx.com/ PHP scripts by weather34.com ©2019